createdAt,value
2023-03-11T00:02:24.781Z,96225.81
2023-03-11T00:04:51.381Z,96234.97
2023-03-11T00:07:17.913Z,96240.13
2023-03-11T00:09:44.431Z,96246.66
2023-03-11T00:12:10.893Z,96258.31
2023-03-11T00:14:37.435Z,96258.53
2023-03-11T00:17:04.011Z,96269.47
2023-03-11T00:19:30.529Z,96271.44
2023-03-11T00:21:58.022Z,96267.72
2023-03-11T00:24:24.552Z,96256.72
2023-03-11T00:26:51.067Z,96265.22
2023-03-11T00:29:17.626Z,96262.44
2023-03-11T00:31:44.480Z,96232.13
2023-03-11T00:34:11.028Z,96222.78
2023-03-11T00:36:37.640Z,96194.28
2023-03-11T00:39:08.256Z,96194.69
2023-03-11T00:41:35.179Z,96211.28
2023-03-11T00:44:01.681Z,96235.47
2023-03-11T00:46:29.859Z,96233.59
2023-03-11T00:48:58.882Z,96224.78
2023-03-11T00:51:28.215Z,96230.16
2023-03-11T00:53:57.894Z,96227.47
2023-03-11T00:56:24.458Z,96226.66
2023-03-11T00:58:50.935Z,96218.59
2023-03-11T01:01:19.447Z,96230.66
2023-03-11T01:03:46.799Z,96231.19
2023-03-11T01:06:13.595Z,96225.00
2023-03-11T01:08:40.557Z,96223.25
2023-03-11T01:11:08.821Z,96231.19
2023-03-11T01:13:35.878Z,96224.31
2023-03-11T01:16:03.185Z,96223.78
2023-03-11T01:18:29.792Z,96224.22
2023-03-11T01:20:56.323Z,96215.72
2023-03-11T01:23:22.960Z,96216.34
2023-03-11T01:25:49.559Z,96218.28
2023-03-11T01:28:18.105Z,96201.97
2023-03-11T01:30:45.406Z,96216.81
2023-03-11T01:33:17.651Z,96224.13
2023-03-11T01:35:45.046Z,96226.19
2023-03-11T01:38:15.353Z,96225.53
2023-03-11T01:40:45.363Z,96232.66
2023-03-11T01:43:39.924Z,96233.59
2023-03-11T01:46:09.276Z,96222.88
2023-03-11T01:48:35.960Z,96212.38
2023-03-11T01:51:02.594Z,96216.28
2023-03-11T01:53:29.401Z,96214.84
2023-03-11T01:55:55.974Z,96199.25
2023-03-11T01:58:28.616Z,96193.38
2023-03-11T02:01:00.514Z,96192.53
2023-03-11T02:03:33.840Z,96183.44
2023-03-11T02:06:07.703Z,96168.34
2023-03-11T02:08:36.805Z,96145.00
2023-03-11T02:11:08.047Z,96156.78
2023-03-11T02:13:36.329Z,96169.75
2023-03-11T02:16:03.656Z,96155.44
2023-03-11T02:18:30.587Z,96165.28
2023-03-11T02:21:26.861Z,96174.19
2023-03-11T02:23:53.379Z,96177.66
2023-03-11T02:26:28.276Z,96180.97
2023-03-11T02:28:56.174Z,96183.66
2023-03-11T02:31:23.951Z,96195.00
2023-03-11T02:33:54.151Z,96198.81
2023-03-11T02:36:46.809Z,96180.97
2023-03-11T02:39:13.389Z,96175.16
2023-03-11T02:41:44.076Z,96180.13
2023-03-11T02:44:13.798Z,96183.09
2023-03-11T02:46:42.678Z,96182.91
2023-03-11T02:49:10.239Z,96183.44
2023-03-11T02:51:36.804Z,96187.75
2023-03-11T02:54:05.723Z,96187.13
2023-03-11T02:56:32.563Z,96191.75
2023-03-11T02:58:59.269Z,96187.75
2023-03-11T03:01:25.896Z,96189.94
2023-03-11T03:03:52.648Z,96202.31
2023-03-11T03:06:19.411Z,96213.03
2023-03-11T03:08:47.089Z,96217.75
2023-03-11T03:11:13.896Z,96233.88
2023-03-11T03:13:40.449Z,96256.72
2023-03-11T03:16:09.990Z,96253.31
2023-03-11T03:18:37.511Z,96252.50
2023-03-11T03:21:04.902Z,96272.56
2023-03-11T03:23:37.682Z,96266.38
2023-03-11T03:26:05.701Z,96276.78
2023-03-11T03:28:32.966Z,96268.28
2023-03-11T03:31:07.837Z,96276.13
2023-03-11T03:33:34.310Z,96289.19
2023-03-11T03:36:01.035Z,96295.84
2023-03-11T03:38:27.640Z,96301.09
2023-03-11T03:40:54.205Z,96320.69
2023-03-11T03:43:20.766Z,96306.09
2023-03-11T03:45:58.014Z,96324.00
2023-03-11T03:48:24.845Z,96323.22
2023-03-11T03:50:51.503Z,96324.09
2023-03-11T03:53:18.206Z,96323.06
2023-03-11T03:55:44.714Z,96338.94
2023-03-11T03:58:11.272Z,96332.22
2023-03-11T04:00:37.902Z,96334.03
2023-03-11T04:03:07.014Z,96340.31
2023-03-11T04:05:33.856Z,96339.13
2023-03-11T04:08:00.712Z,96339.66
2023-03-11T04:10:27.740Z,96328.72
2023-03-11T04:12:54.238Z,96330.13
2023-03-11T04:15:20.892Z,96337.38
2023-03-11T04:17:47.445Z,96333.94
2023-03-11T04:20:13.993Z,96341.84
2023-03-11T04:22:40.567Z,96346.19
2023-03-11T04:25:07.692Z,96359.78
2023-03-11T04:27:34.310Z,96370.41
2023-03-11T04:30:00.870Z,96371.06
2023-03-11T04:32:27.473Z,96372.16
2023-03-11T04:34:54.005Z,96366.16
2023-03-11T04:37:20.595Z,96377.44
2023-03-11T04:39:47.173Z,96369.56
2023-03-11T04:42:14.120Z,96361.81
2023-03-11T04:44:40.669Z,96370.78
2023-03-11T04:47:07.365Z,96370.69
2023-03-11T04:49:33.928Z,96371.69
2023-03-11T04:52:00.500Z,96384.59
2023-03-11T04:54:27.021Z,96381.97
2023-03-11T04:56:53.653Z,96387.66
2023-03-11T04:59:20.215Z,96381.06
2023-03-11T05:01:46.849Z,96377.81
2023-03-11T05:04:13.463Z,96379.66
2023-03-11T05:06:40.063Z,96382.94
2023-03-11T05:09:06.601Z,96389.38
2023-03-11T05:11:33.124Z,96391.00
2023-03-11T05:13:59.708Z,96390.31
2023-03-11T05:16:26.278Z,96395.75
2023-03-11T05:18:52.872Z,96405.09
2023-03-11T05:21:19.377Z,96396.03
2023-03-11T05:23:45.919Z,96400.28
2023-03-11T05:26:12.579Z,96400.84
2023-03-11T05:28:39.252Z,96401.75
2023-03-11T05:31:10.385Z,96400.44
2023-03-11T05:33:37.205Z,96407.50
2023-03-11T05:36:09.332Z,96417.47
2023-03-11T05:38:36.877Z,96401.25
2023-03-11T05:41:03.544Z,96416.06
2023-03-11T05:43:30.078Z,96410.69
2023-03-11T05:45:56.598Z,96404.84
2023-03-11T05:48:23.111Z,96409.00
2023-03-11T05:50:49.650Z,96409.44
2023-03-11T05:53:16.260Z,96411.34
2023-03-11T05:55:42.742Z,96425.19
2023-03-11T05:58:09.414Z,96424.19
2023-03-11T06:00:36.929Z,96422.78
2023-03-11T06:03:03.603Z,96419.06
2023-03-11T06:05:30.124Z,96418.22
2023-03-11T06:07:56.668Z,96418.31
2023-03-11T06:10:23.314Z,96424.56
2023-03-11T06:12:52.960Z,96426.75
2023-03-11T06:15:19.552Z,96424.53
2023-03-11T06:17:48.181Z,96427.97
2023-03-11T06:20:14.792Z,96432.81
2023-03-11T06:22:41.340Z,96443.09
2023-03-11T06:25:08.355Z,96449.03
2023-03-11T06:27:37.263Z,96439.75
2023-03-11T06:30:04.540Z,96448.06
2023-03-11T06:32:31.165Z,96436.63
2023-03-11T06:34:57.769Z,96452.16
2023-03-11T06:37:25.682Z,96445.88
2023-03-11T06:39:56.865Z,96445.69
2023-03-11T06:42:26.887Z,96470.84
2023-03-11T06:44:53.436Z,96481.06
2023-03-11T06:47:19.959Z,96469.91
2023-03-11T06:49:46.538Z,96480.28
2023-03-11T06:52:13.192Z,96478.72
2023-03-11T06:54:40.064Z,96465.69
2023-03-11T06:57:10.187Z,96478.19
2023-03-11T06:59:37.157Z,96477.22
2023-03-11T07:02:05.862Z,96474.72
2023-03-11T07:04:33.100Z,96476.19
2023-03-11T07:06:59.613Z,96490.78
2023-03-11T07:09:27.816Z,96493.28
2023-03-11T07:11:54.528Z,96501.28
2023-03-11T07:14:21.142Z,96511.16
2023-03-11T07:16:47.878Z,96499.78
2023-03-11T07:19:15.193Z,96507.28
2023-03-11T07:21:42.046Z,96492.97
2023-03-11T07:24:11.632Z,96500.13
2023-03-11T07:26:38.266Z,96500.91
2023-03-11T07:29:05.027Z,96503.06
2023-03-11T07:31:34.088Z,96508.38
2023-03-11T07:34:04.245Z,96505.81
2023-03-11T07:36:31.384Z,96511.41
2023-03-11T07:39:03.138Z,96517.00
2023-03-11T07:41:33.282Z,96515.28
2023-03-11T07:44:00.882Z,96525.06
2023-03-11T07:46:28.993Z,96515.22
2023-03-11T07:48:56.042Z,96514.75
2023-03-11T07:51:26.062Z,96518.69
2023-03-11T07:53:54.591Z,96537.22
2023-03-11T07:56:23.747Z,96522.84
2023-03-11T07:58:51.302Z,96531.56
2023-03-11T08:01:20.884Z,96529.72
2023-03-11T08:03:50.220Z,96542.53
2023-03-11T08:06:22.737Z,96540.66
2023-03-11T08:08:50.102Z,96548.00
2023-03-11T08:11:17.775Z,96542.34
2023-03-11T08:13:46.150Z,96544.53
2023-03-11T08:16:15.801Z,96553.97
2023-03-11T08:18:42.957Z,96547.41
2023-03-11T08:21:12.406Z,96560.97
2023-03-11T08:23:38.927Z,96556.44
2023-03-11T08:26:07.365Z,96570.88
2023-03-11T08:28:34.057Z,96575.22
2023-03-11T08:31:01.146Z,96576.09
2023-03-11T08:33:31.022Z,96570.31
2023-03-11T08:35:57.627Z,96583.25
2023-03-11T08:38:24.495Z,96586.69
2023-03-11T08:40:51.027Z,96565.53
2023-03-11T08:43:17.557Z,96584.19
2023-03-11T08:45:44.350Z,96587.41
2023-03-11T08:48:11.999Z,96588.06
2023-03-11T08:50:53.471Z,96605.41
2023-03-11T08:53:21.052Z,96604.16
2023-03-11T08:55:47.534Z,96601.00
2023-03-11T08:58:14.104Z,96612.03
2023-03-11T09:00:40.718Z,96612.94
2023-03-11T09:03:07.415Z,96627.03
2023-03-11T09:05:34.011Z,96619.13
2023-03-11T09:08:00.620Z,96632.00
2023-03-11T09:10:27.289Z,96629.38
2023-03-11T09:12:53.936Z,96641.31
2023-03-11T09:15:20.833Z,96653.09
2023-03-11T09:17:47.326Z,96650.09
2023-03-11T09:20:15.294Z,96660.88
2023-03-11T09:22:41.951Z,96651.63
2023-03-11T09:25:11.957Z,96674.69
2023-03-11T09:27:38.683Z,96668.84
2023-03-11T09:30:06.037Z,96677.59
2023-03-11T09:32:32.784Z,96675.03
2023-03-11T09:35:00.255Z,96683.66
2023-03-11T09:37:27.183Z,96683.72
2023-03-11T09:39:53.789Z,96690.34
2023-03-11T09:42:31.418Z,96681.03
2023-03-11T09:45:03.761Z,96704.94
2023-03-11T09:47:46.052Z,96704.88
2023-03-11T09:50:20.334Z,96712.56
2023-03-11T09:52:59.159Z,96718.41
2023-03-11T09:55:41.703Z,96715.00
2023-03-11T09:58:43.374Z,96715.22
2023-03-11T10:01:18.139Z,96718.00
2023-03-11T10:03:45.049Z,96731.56
2023-03-11T10:06:22.019Z,96745.63
2023-03-11T10:09:26.116Z,96749.59
2023-03-11T10:12:20.189Z,96753.78
2023-03-11T10:15:22.218Z,96769.75
2023-03-11T10:18:13.250Z,96772.06
2023-03-11T10:20:52.696Z,96762.13
2023-03-11T10:23:49.944Z,96773.34
2023-03-11T10:26:33.516Z,96783.91
2023-03-11T10:29:21.855Z,96790.56
2023-03-11T10:32:17.261Z,96795.59
2023-03-11T10:34:50.720Z,96797.91
2023-03-11T10:37:24.229Z,96800.72
2023-03-11T10:39:51.619Z,96819.53
2023-03-11T10:42:27.828Z,96815.28
2023-03-11T10:44:54.373Z,96822.69
2023-03-11T10:47:24.350Z,96833.66
2023-03-11T10:49:52.545Z,96825.25
2023-03-11T10:52:20.140Z,96841.41
2023-03-11T10:54:58.578Z,96831.03
2023-03-11T10:57:36.422Z,96846.56
2023-03-11T11:00:17.416Z,96855.06
2023-03-11T11:02:53.199Z,96854.38
2023-03-11T11:05:22.623Z,96863.66
2023-03-11T11:07:53.145Z,96869.19
2023-03-11T11:10:27.328Z,96870.03
2023-03-11T11:13:03.963Z,96871.69
2023-03-11T11:15:35.317Z,96885.47
2023-03-11T11:18:03.258Z,96882.75
2023-03-11T11:20:30.909Z,96887.69
2023-03-11T11:23:00.490Z,96887.13
2023-03-11T11:25:35.527Z,96889.78
2023-03-11T11:28:15.107Z,96904.31
2023-03-11T11:30:54.092Z,96911.34
2023-03-11T11:33:30.685Z,96919.66
2023-03-11T11:36:01.518Z,96917.91
2023-03-11T11:38:30.208Z,96928.16
2023-03-11T11:41:01.723Z,96926.19
2023-03-11T11:43:49.783Z,96929.06
2023-03-11T11:46:21.111Z,96929.91
2023-03-11T11:49:05.692Z,96933.41
2023-03-11T11:51:37.243Z,96931.84
2023-03-11T11:54:30.207Z,96935.06
2023-03-11T11:56:58.464Z,96929.34
2023-03-11T11:59:25.774Z,96942.91
2023-03-11T12:02:11.078Z,96942.09
2023-03-11T12:04:48.148Z,96944.44
2023-03-11T12:07:26.750Z,96945.91
2023-03-11T12:10:21.391Z,96940.06
2023-03-11T12:13:13.556Z,96960.28
2023-03-11T12:15:46.059Z,96962.84
2023-03-11T12:18:35.323Z,96958.69
2023-03-11T12:21:12.933Z,96966.88
2023-03-11T12:24:13.302Z,96970.22
2023-03-11T12:26:46.693Z,96975.34
2023-03-11T12:29:37.462Z,96974.72
2023-03-11T12:32:04.329Z,96973.94
2023-03-11T12:34:35.307Z,96981.44
2023-03-11T12:37:03.528Z,96995.81
2023-03-11T12:39:33.691Z,96998.31
2023-03-11T12:42:22.995Z,96989.56
2023-03-11T12:44:50.000Z,96993.09
2023-03-11T12:47:23.048Z,96988.50
2023-03-11T12:49:55.030Z,96993.44
2023-03-11T12:52:26.486Z,97001.00
2023-03-11T12:54:59.343Z,97003.59
2023-03-11T12:57:35.837Z,96996.75
2023-03-11T13:00:26.646Z,97003.34
2023-03-11T13:03:05.722Z,97015.03
2023-03-11T13:05:44.938Z,97008.84
2023-03-11T13:08:36.353Z,97019.09
2023-03-11T13:11:34.854Z,97022.34
2023-03-11T13:14:33.522Z,97027.47
2023-03-11T13:17:30.933Z,97033.41
2023-03-11T13:19:59.018Z,97034.56
2023-03-11T13:22:58.528Z,97036.84
2023-03-11T13:25:42.930Z,97041.09
2023-03-11T13:28:29.529Z,97039.59
2023-03-11T13:31:35.066Z,97048.78
2023-03-11T13:34:13.906Z,97054.63
2023-03-11T13:36:52.783Z,97069.06
2023-03-11T13:39:31.941Z,97064.75
2023-03-11T13:41:58.597Z,97070.75
2023-03-11T13:44:29.781Z,97063.88
2023-03-11T13:47:23.615Z,97074.97
2023-03-11T13:50:26.114Z,97061.53
2023-03-11T13:52:55.279Z,97081.31
2023-03-11T13:55:28.789Z,97088.09
2023-03-11T13:57:57.324Z,97082.28
2023-03-11T14:00:28.544Z,97082.38
2023-03-11T14:02:57.786Z,97089.34
2023-03-11T14:05:33.391Z,97095.38
2023-03-11T14:08:24.016Z,97085.31
2023-03-11T14:10:55.042Z,97108.38
2023-03-11T14:13:23.320Z,97107.59
2023-03-11T14:15:58.561Z,97111.78
2023-03-11T14:18:29.009Z,97123.69
2023-03-11T14:20:56.620Z,97118.66
2023-03-11T14:23:30.130Z,97131.38
2023-03-11T14:26:02.541Z,97122.88
2023-03-11T14:28:33.421Z,97141.72
2023-03-11T14:31:02.032Z,97136.56
2023-03-11T14:33:29.130Z,97136.78
2023-03-11T14:35:58.482Z,97140.13
2023-03-11T14:38:28.243Z,97140.94
2023-03-11T14:41:05.339Z,97142.66
2023-03-11T14:43:41.040Z,97147.84
2023-03-11T14:46:08.797Z,97153.81
2023-03-11T14:48:41.833Z,97161.47
2023-03-11T14:51:19.722Z,97168.28
2023-03-11T14:53:53.533Z,97173.47
2023-03-11T14:56:24.039Z,97171.75
2023-03-11T14:59:09.558Z,97170.81
2023-03-11T15:01:42.497Z,97181.09
2023-03-11T15:04:26.892Z,97174.28
2023-03-11T15:06:55.130Z,97181.91
2023-03-11T15:09:24.106Z,97189.59
2023-03-11T15:12:01.952Z,97184.41
2023-03-11T15:14:35.377Z,97194.63
2023-03-11T15:17:37.417Z,97192.19
2023-03-11T15:20:37.001Z,97200.41
2023-03-11T15:23:06.053Z,97202.00
2023-03-11T15:25:35.184Z,97198.66
2023-03-11T15:28:38.600Z,97200.41
2023-03-11T15:31:20.365Z,97198.66
2023-03-11T15:33:47.702Z,97205.44
2023-03-11T15:36:33.974Z,97208.91
2023-03-11T15:39:18.306Z,97202.78
2023-03-11T15:42:06.843Z,97211.56
2023-03-11T15:44:36.237Z,97219.19
2023-03-11T15:47:06.104Z,97218.38
2023-03-11T15:49:33.952Z,97222.56
2023-03-11T15:52:00.903Z,97227.72
2023-03-11T15:54:27.891Z,97241.38
2023-03-11T15:56:57.889Z,97234.56
2023-03-11T15:59:24.499Z,97232.91
2023-03-11T16:01:51.025Z,97250.81
2023-03-11T16:04:19.461Z,97250.75
2023-03-11T16:06:56.503Z,97253.38
2023-03-11T16:09:31.660Z,97265.28
2023-03-11T16:11:58.233Z,97256.34
2023-03-11T16:14:24.934Z,97264.75
2023-03-11T16:16:51.480Z,97277.72
2023-03-11T16:19:18.076Z,97276.88
2023-03-11T16:21:49.494Z,97285.41
2023-03-11T16:24:20.915Z,97284.75
2023-03-11T16:26:47.698Z,97277.78
2023-03-11T16:29:19.362Z,97289.75
2023-03-11T16:31:47.021Z,97293.16
2023-03-11T16:34:13.604Z,97296.50
2023-03-11T16:36:40.290Z,97312.78
2023-03-11T16:39:06.911Z,97312.00
2023-03-11T16:41:44.740Z,97319.69
2023-03-11T16:44:12.136Z,97324.72
2023-03-11T16:46:38.877Z,97337.56
2023-03-11T16:49:05.693Z,97342.66
2023-03-11T16:51:32.575Z,97350.34
2023-03-11T16:53:59.739Z,97355.53
2023-03-11T16:56:26.351Z,97364.09
2023-03-11T16:58:52.926Z,97368.50
2023-03-11T17:01:21.811Z,97371.09
2023-03-11T17:03:50.839Z,97379.66
2023-03-11T17:06:17.854Z,97381.44
2023-03-11T17:08:49.341Z,97368.75
2023-03-11T17:11:22.084Z,97368.91
2023-03-11T17:13:50.580Z,97396.31
2023-03-11T17:16:17.166Z,97396.31
2023-03-11T17:18:43.736Z,97401.47
2023-03-11T17:21:13.989Z,97406.72
2023-03-11T17:23:41.114Z,97415.53
2023-03-11T17:26:15.847Z,97417.28
2023-03-11T17:28:43.479Z,97432.75
2023-03-11T17:31:14.644Z,97438.81
2023-03-11T17:33:41.368Z,97433.00
2023-03-11T17:36:11.135Z,97444.03
2023-03-11T17:38:37.633Z,97450.97
2023-03-11T17:41:08.411Z,97442.56
2023-03-11T17:43:35.034Z,97450.31
2023-03-11T17:46:02.021Z,97455.59
2023-03-11T17:48:28.569Z,97465.88
2023-03-11T17:50:55.102Z,97464.28
2023-03-11T17:53:21.609Z,97471.13
2023-03-11T17:55:48.220Z,97467.88
2023-03-11T17:58:14.810Z,97484.06
2023-03-11T18:00:41.339Z,97482.44
2023-03-11T18:03:07.901Z,97482.50
2023-03-11T18:05:36.887Z,97480.88
2023-03-11T18:08:03.768Z,97488.56
2023-03-11T18:10:30.529Z,97489.47
2023-03-11T18:12:57.094Z,97501.50
2023-03-11T18:15:24.487Z,97510.09
2023-03-11T18:17:51.148Z,97511.81
2023-03-11T18:20:17.769Z,97513.41
2023-03-11T18:22:46.719Z,97521.06
2023-03-11T18:25:14.013Z,97525.31
2023-03-11T18:27:40.955Z,97534.59
2023-03-11T18:30:08.657Z,97538.81
2023-03-11T18:32:35.264Z,97544.75
2023-03-11T18:35:01.870Z,97554.97
2023-03-11T18:37:32.954Z,97555.88
2023-03-11T18:39:59.850Z,97561.78
2023-03-11T18:42:26.492Z,97566.75
2023-03-11T18:44:53.096Z,97577.81
2023-03-11T18:47:19.792Z,97571.88
2023-03-11T18:49:46.603Z,97587.16
2023-03-11T18:52:13.153Z,97575.25
2023-03-11T18:54:39.848Z,97588.00
2023-03-11T18:57:06.535Z,97582.22
2023-03-11T18:59:33.364Z,97588.97
2023-03-11T19:01:59.959Z,97586.50
2023-03-11T19:04:28.566Z,97594.88
2023-03-11T19:06:55.118Z,97585.53
2023-03-11T19:09:24.546Z,97608.59
2023-03-11T19:11:51.043Z,97611.16
2023-03-11T19:14:17.587Z,97616.28
2023-03-11T19:16:44.281Z,97617.94
2023-03-11T19:19:12.028Z,97615.47
2023-03-11T19:21:38.862Z,97619.78
2023-03-11T19:24:05.644Z,97622.31
2023-03-11T19:26:44.263Z,97618.00
2023-03-11T19:29:12.678Z,97616.28
2023-03-11T19:31:39.352Z,97631.63
2023-03-11T19:34:05.908Z,97634.28
2023-03-11T19:36:32.554Z,97641.06
2023-03-11T19:38:59.142Z,97635.16
2023-03-11T19:41:25.823Z,97647.03
2023-03-11T19:43:52.421Z,97652.16
2023-03-11T19:46:23.081Z,97662.44
2023-03-11T19:48:49.844Z,97658.25
2023-03-11T19:51:17.580Z,97659.94
2023-03-11T19:53:44.447Z,97661.66
2023-03-11T19:56:14.607Z,97674.44
2023-03-11T19:58:42.743Z,97672.72
2023-03-11T20:01:16.627Z,97686.47
2023-03-11T20:03:43.933Z,97687.38
2023-03-11T20:06:11.479Z,97685.53
2023-03-11T20:08:38.219Z,97692.38
2023-03-11T20:11:06.039Z,97703.63
2023-03-11T20:13:34.971Z,97693.53
2023-03-11T20:16:10.227Z,97698.69
2023-03-11T20:18:37.160Z,97700.47
2023-03-11T20:21:08.709Z,97705.47
2023-03-11T20:23:35.806Z,97697.06
2023-03-11T20:26:12.017Z,97699.44
2023-03-11T20:28:38.766Z,97696.91
2023-03-11T20:31:09.798Z,97690.03
2023-03-11T20:33:37.629Z,97696.88
2023-03-11T20:36:08.480Z,97703.69
2023-03-11T20:38:35.332Z,97699.38
2023-03-11T20:41:05.905Z,97700.25
2023-03-11T20:43:33.343Z,97704.59
2023-03-11T20:46:03.920Z,97708.81
2023-03-11T20:48:31.072Z,97710.50
2023-03-11T20:51:06.821Z,97713.97
2023-03-11T20:53:33.401Z,97708.84
2023-03-11T20:56:10.951Z,97713.09
2023-03-11T20:58:38.750Z,97714.88
2023-03-11T21:01:23.792Z,97716.56
2023-03-11T21:03:53.203Z,97720.88
2023-03-11T21:06:22.644Z,97723.38
2023-03-11T21:08:49.677Z,97721.63
2023-03-11T21:11:17.452Z,97716.56
2023-03-11T21:13:44.514Z,97722.56
2023-03-11T21:16:11.202Z,97724.25
2023-03-11T21:18:38.045Z,97719.19
2023-03-11T21:21:08.387Z,97711.56
2023-03-11T21:23:36.077Z,97725.19
2023-03-11T21:26:05.038Z,97731.06
2023-03-11T21:28:34.469Z,97725.94
2023-03-11T21:31:06.551Z,97728.47
2023-03-11T21:33:33.540Z,97733.63
2023-03-11T21:36:01.197Z,97729.38
2023-03-11T21:38:28.940Z,97724.28
2023-03-11T21:41:06.867Z,97732.81
2023-03-11T21:43:33.591Z,97732.00
2023-03-11T21:46:00.883Z,97727.69
2023-03-11T21:48:27.607Z,97736.16
2023-03-11T21:50:54.301Z,97731.91
2023-03-11T21:53:20.975Z,97729.38
2023-03-11T21:55:47.724Z,97727.69
2023-03-11T21:58:14.906Z,97736.31
2023-03-11T22:00:41.606Z,97732.06
2023-03-11T22:03:08.552Z,97731.22
2023-03-11T22:05:35.399Z,97744.03
2023-03-11T22:08:02.070Z,97751.66
2023-03-11T22:10:28.598Z,97743.16
2023-03-11T22:12:55.202Z,97746.56
2023-03-11T22:15:21.864Z,97746.59
2023-03-11T22:17:48.583Z,97751.72
2023-03-11T22:20:15.271Z,97752.56
2023-03-11T22:22:41.975Z,97751.75
2023-03-11T22:25:08.936Z,97757.72
2023-03-11T22:27:35.802Z,97762.81
2023-03-11T22:30:02.581Z,97760.28
2023-03-11T22:32:29.145Z,97767.94
2023-03-11T22:34:55.723Z,97766.22
2023-03-11T22:37:22.216Z,97770.50
2023-03-11T22:39:48.845Z,97777.25
2023-03-11T22:42:15.653Z,97774.75
2023-03-11T22:44:42.221Z,97784.97
2023-03-11T22:47:08.788Z,97778.19
2023-03-11T22:49:35.338Z,97792.69
2023-03-11T22:52:01.913Z,97791.84
2023-03-11T22:54:28.544Z,97791.00
2023-03-11T22:56:55.102Z,97802.91
2023-03-11T22:59:21.674Z,97805.44
2023-03-11T23:01:48.184Z,97814.72
2023-03-11T23:04:14.884Z,97802.91
2023-03-11T23:06:41.418Z,97817.31
2023-03-11T23:09:07.980Z,97823.22
2023-03-11T23:11:34.569Z,97814.78
2023-03-11T23:14:01.170Z,97813.91
2023-03-11T23:16:27.865Z,97825.81
2023-03-11T23:18:55.848Z,97820.72
2023-03-11T23:21:28.164Z,97828.34
2023-03-11T23:23:55.101Z,97830.06
2023-03-11T23:26:22.364Z,97830.91
2023-03-11T23:28:51.185Z,97838.59
2023-03-11T23:31:18.815Z,97838.59
2023-03-11T23:33:45.622Z,97843.69
2023-03-11T23:36:15.157Z,97839.47
2023-03-11T23:38:41.818Z,97851.38
2023-03-11T23:41:14.178Z,97844.59
2023-03-11T23:43:41.173Z,97851.38
2023-03-11T23:46:10.345Z,97856.44
2023-03-11T23:48:38.059Z,97855.63
2023-03-11T23:51:05.535Z,97857.31
2023-03-11T23:53:32.897Z,97864.97
2023-03-11T23:55:59.634Z,97864.09
2023-03-11T23:58:26.252Z,97867.50
